Time;durP1;ratioP1;P1;durP2;ratioP2;P2;SDS_P1;SDS_P2;PMS_P1;PMS_P2;Temp;Humidity;BMP_temperature;BMP_pressure;BME280_temperature;BME280_humidity;BME280_pressure;Samples;Min_cycle;Max_cycle;Signal;HPM_P1;HPM_P2
2021/05/01 00:00:21;;;;;;;56.93;47.20;;;8.90;99.90;;;;;;5114464;28;20186;-67
2021/05/01 00:02:46;;;;;;;55.90;47.53;;;8.90;99.90;;;;;;5114892;28;20159;-67
2021/05/01 00:05:12;;;;;;;52.97;47.03;;;8.90;99.90;;;;;;5114470;28;20158;-67
2021/05/01 00:07:38;;;;;;;61.47;48.03;;;8.90;99.90;;;;;;5113052;28;20220;-67
2021/05/01 00:10:05;;;;;;;57.30;48.17;;;8.80;99.90;;;;;;5112429;28;20415;-67
2021/05/01 00:12:31;;;;;;;56.20;48.57;;;8.80;99.90;;;;;;5093973;28;20167;-67
2021/05/01 00:14:56;;;;;;;52.73;47.27;;;8.80;99.90;;;;;;5093914;28;20827;-67
2021/05/01 00:17:22;;;;;;;53.87;47.90;;;8.80;99.90;;;;;;5094197;28;20201;-67
2021/05/01 00:19:47;;;;;;;56.17;48.70;;;8.80;99.90;;;;;;5093749;28;20250;-67
2021/05/01 00:22:13;;;;;;;60.17;49.27;;;8.80;99.90;;;;;;5094749;28;20186;-67
2021/05/01 00:24:38;;;;;;;57.67;51.37;;;8.80;99.90;;;;;;5114093;28;20167;-67
2021/05/01 00:27:04;;;;;;;57.93;49.23;;;8.80;99.90;;;;;;5112643;28;20159;-66
2021/05/01 00:29:30;;;;;;;63.13;48.23;;;8.80;99.90;;;;;;5093707;28;20253;-67
2021/05/01 00:31:56;;;;;;;56.73;50.03;;;8.80;99.90;;;;;;5094245;28;20638;-67
2021/05/01 00:34:21;;;;;;;60.00;49.90;;;8.80;99.90;;;;;;5093496;28;20166;-67
2021/05/01 00:36:47;;;;;;;56.30;48.10;;;8.80;99.90;;;;;;5093534;28;20164;-67
2021/05/01 00:39:12;;;;;;;55.33;48.90;;;8.80;99.90;;;;;;5093295;28;20194;-67
2021/05/01 00:41:38;;;;;;;54.40;47.40;;;8.80;99.90;;;;;;5093338;28;20288;-67
2021/05/01 00:44:05;;;;;;;56.33;46.97;;;8.80;99.90;;;;;;5092606;28;20531;-67
2021/05/01 00:46:31;;;;;;;62.43;49.87;;;8.80;99.90;;;;;;5093898;28;20156;-67
2021/05/01 00:48:57;;;;;;;58.53;49.73;;;8.80;99.90;;;;;;5093261;28;20742;-67
2021/05/01 00:51:22;;;;;;;54.67;48.70;;;8.80;99.90;;;;;;5093142;28;20404;-67
2021/05/01 00:53:49;;;;;;;65.80;52.10;;;8.80;99.90;;;;;;5110188;28;20631;-67
2021/05/01 00:56:16;;;;;;;60.23;52.83;;;8.80;99.90;;;;;;5113530;28;20174;-67
2021/05/01 00:58:42;;;;;;;59.67;48.83;;;8.70;99.90;;;;;;5113373;28;20492;-67
2021/05/01 01:03:47;;;;;;;61.87;51.37;;;8.70;99.90;;;;;;5131239;27;20504;-67
2021/05/01 01:06:14;;;;;;;61.50;52.03;;;8.70;99.90;;;;;;5127310;27;20397;-67
2021/05/01 01:08:40;;;;;;;61.50;53.90;;;8.70;99.90;;;;;;5110567;28;20748;-67
2021/05/01 01:11:06;;;;;;;67.13;52.33;;;8.70;99.90;;;;;;5110681;28;20954;-67
2021/05/01 01:13:32;;;;;;;61.50;53.47;;;8.60;99.90;;;;;;5110807;28;20392;-67
2021/05/01 01:15:58;;;;;;;60.97;50.30;;;8.60;99.90;;;;;;5111653;28;20803;-67
2021/05/01 01:18:23;;;;;;;64.03;55.10;;;8.60;99.90;;;;;;5114931;28;20178;-67
2021/05/01 01:20:49;;;;;;;62.37;52.73;;;8.60;99.90;;;;;;5130953;28;20150;-67
2021/05/01 01:23:15;;;;;;;59.97;53.37;;;8.60;99.90;;;;;;5130825;28;20182;-67
2021/05/01 01:25:40;;;;;;;59.43;50.87;;;8.60;99.90;;;;;;5131006;28;20169;-67
2021/05/01 01:28:06;;;;;;;58.37;52.03;;;8.60;99.90;;;;;;5130995;27;20150;-67
2021/05/01 01:30:34;;;;;;;61.87;52.87;;;8.60;99.90;;;;;;5131435;27;20177;-67
2021/05/01 01:33:03;;;;;;;63.07;56.17;;;8.50;99.90;;;;;;5129190;27;20781;-67
2021/05/01 01:35:29;;;;;;;61.43;54.60;;;8.50;99.90;;;;;;5125851;27;20430;-67
2021/05/01 01:37:55;;;;;;;65.33;53.97;;;8.50;99.90;;;;;;5110152;28;20397;-67
2021/05/01 01:40:22;;;;;;;61.30;49.23;;;8.50;99.90;;;;;;5110071;28;20151;-67
2021/05/01 01:42:48;;;;;;;57.57;50.47;;;8.50;99.90;;;;;;5110147;28;20222;-67
2021/05/01 01:45:16;;;;;;;60.73;50.03;;;8.50;99.90;;;;;;5110521;28;20392;-67
2021/05/01 01:47:42;;;;;;;59.37;49.87;;;8.50;99.90;;;;;;5110011;28;20480;-67
2021/05/01 01:50:11;;;;;;;55.40;49.40;;;8.50;99.90;;;;;;5109885;28;20477;-67
2021/05/01 01:52:37;;;;;;;61.60;51.03;;;8.50;99.90;;;;;;5113409;28;20427;-67
2021/05/01 01:55:05;;;;;;;54.97;47.83;;;8.50;99.90;;;;;;5109773;28;20422;-67
2021/05/01 01:57:31;;;;;;;59.43;49.47;;;8.50;99.90;;;;;;5110044;28;20397;-67
2021/05/01 01:59:57;;;;;;;52.20;45.67;;;8.50;99.90;;;;;;5110037;28;20512;-67
2021/05/01 02:02:23;;;;;;;53.57;47.20;;;8.50;99.90;;;;;;5109406;28;20285;-67
2021/05/01 02:04:48;;;;;;;50.03;44.40;;;8.50;99.90;;;;;;5109713;28;20652;-67
2021/05/01 02:07:14;;;;;;;54.27;46.27;;;8.50;99.90;;;;;;5109596;28;20397;-67
2021/05/01 02:09:39;;;;;;;53.17;47.37;;;8.50;99.90;;;;;;5110628;28;20197;-69
2021/05/01 02:12:05;;;;;;;55.80;47.30;;;8.50;99.90;;;;;;5109500;28;20190;-69
2021/05/01 02:14:31;;;;;;;56.23;47.43;;;8.40;99.90;;;;;;5099361;28;20156;-70
2021/05/01 02:16:56;;;;;;;58.43;47.63;;;8.40;99.90;;;;;;5095793;28;20187;-70
2021/05/01 02:19:22;;;;;;;56.07;50.00;;;8.40;99.90;;;;;;5095867;28;20239;-70
2021/05/01 02:21:47;;;;;;;51.53;45.40;;;8.40;99.90;;;;;;5097243;28;20190;-69
2021/05/01 02:24:14;;;;;;;52.83;47.03;;;8.40;99.90;;;;;;5116295;28;20522;-69
2021/05/01 02:26:39;;;;;;;59.03;50.07;;;8.40;99.90;;;;;;5109650;28;20197;-69
2021/05/01 02:29:05;;;;;;;57.60;49.37;;;8.40;99.90;;;;;;5095882;28;20393;-69
2021/05/01 02:31:30;;;;;;;55.03;47.70;;;8.40;99.90;;;;;;5095508;28;20608;-69
2021/05/01 02:33:56;;;;;;;55.47;47.57;;;8.40;99.90;;;;;;5095662;28;20208;-70
2021/05/01 02:36:21;;;;;;;55.80;49.10;;;8.40;99.90;;;;;;5095501;28;20152;-69
2021/05/01 02:38:47;;;;;;;59.07;48.00;;;8.40;99.90;;;;;;5095387;28;20531;-70
2021/05/01 02:41:12;;;;;;;58.93;49.20;;;8.40;99.90;;;;;;5095357;28;20177;-69
2021/05/01 02:43:38;;;;;;;58.50;49.93;;;8.40;99.90;;;;;;5096064;28;20546;-69
2021/05/01 02:46:04;;;;;;;59.50;49.60;;;8.40;99.90;;;;;;5095237;28;20461;-70
2021/05/01 02:48:31;;;;;;;63.20;52.07;;;8.40;99.90;;;;;;5095681;28;20617;-67
2021/05/01 02:50:58;;;;;;;62.20;51.07;;;8.40;99.90;;;;;;5095233;28;20684;-67
2021/05/01 02:53:23;;;;;;;68.40;52.83;;;8.40;99.90;;;;;;5113172;28;20839;-67
2021/05/01 02:55:49;;;;;;;66.77;54.80;;;8.50;99.90;;;;;;5115516;28;20396;-66
2021/05/01 02:58:15;;;;;;;68.70;53.30;;;8.50;99.90;;;;;;5115852;27;20158;-67
2021/05/01 03:00:40;;;;;;;69.03;56.60;;;8.50;99.90;;;;;;5108927;28;20186;-67
2021/05/01 03:03:06;;;;;;;69.40;55.67;;;8.50;99.90;;;;;;5094754;28;20453;-67
2021/05/01 03:05:32;;;;;;;67.57;53.30;;;8.50;99.90;;;;;;5094883;28;20152;-67
2021/05/01 03:07:57;;;;;;;73.47;55.47;;;8.50;99.90;;;;;;5094922;28;20155;-67
2021/05/01 03:10:25;;;;;;;76.27;58.97;;;8.50;99.90;;;;;;5095042;28;20163;-67
2021/05/01 03:12:51;;;;;;;80.10;59.50;;;8.50;99.90;;;;;;5095266;28;20185;-67
2021/05/01 03:15:17;;;;;;;74.63;58.17;;;8.50;99.90;;;;;;5095131;28;20410;-66
2021/05/01 03:17:44;;;;;;;83.03;61.47;;;8.50;99.90;;;;;;5095149;28;20406;-67
2021/05/01 03:20:12;;;;;;;79.83;60.53;;;8.50;99.90;;;;;;5094654;28;20393;-67
2021/05/01 03:22:38;;;;;;;76.90;61.13;;;8.40;99.90;;;;;;5105473;28;20452;-67
2021/05/01 03:25:06;;;;;;;82.93;62.47;;;8.40;99.90;;;;;;5114051;28;20389;-67
2021/05/01 03:27:31;;;;;;;79.37;61.73;;;8.30;99.90;;;;;;5115300;28;20403;-67
2021/05/01 03:29:57;;;;;;;80.90;60.90;;;8.30;99.90;;;;;;5114881;28;20389;-67
2021/05/01 03:32:23;;;;;;;82.43;61.90;;;8.20;99.90;;;;;;5114757;28;20159;-67
2021/05/01 03:34:49;;;;;;;80.27;59.77;;;8.20;99.90;;;;;;5106619;27;20897;-67
2021/05/01 03:37:14;;;;;;;85.30;63.70;;;8.20;99.90;;;;;;5094302;28;20155;-67
2021/05/01 03:39:40;;;;;;;81.60;60.20;;;8.20;99.90;;;;;;5094235;28;20228;-67
2021/05/01 03:42:06;;;;;;;79.80;61.00;;;8.20;99.90;;;;;;5094772;28;20217;-67
2021/05/01 03:44:32;;;;;;;81.10;63.20;;;8.20;99.90;;;;;;5094355;28;20446;-67
2021/05/01 03:46:58;;;;;;;76.03;60.73;;;8.30;99.90;;;;;;5094057;28;20390;-67
2021/05/01 03:49:24;;;;;;;77.37;58.63;;;8.30;99.90;;;;;;5094045;28;20198;-67
2021/05/01 03:51:50;;;;;;;78.30;56.77;;;8.20;99.90;;;;;;5101001;28;20279;-67
2021/05/01 03:54:16;;;;;;;75.23;59.97;;;8.20;99.90;;;;;;5114367;27;20480;-67
2021/05/01 03:56:42;;;;;;;79.87;59.23;;;8.20;99.90;;;;;;5114790;28;20952;-67
2021/05/01 03:59:07;;;;;;;79.23;58.63;;;8.20;99.90;;;;;;5114128;28;20544;-67
2021/05/01 04:01:33;;;;;;;85.23;60.17;;;8.20;99.90;;;;;;5114031;27;20185;-67
2021/05/01 04:03:59;;;;;;;80.13;60.13;;;8.10;99.90;;;;;;5114170;28;20150;-66
2021/05/01 04:06:24;;;;;;;74.47;56.57;;;8.20;99.90;;;;;;5114172;28;20239;-67
2021/05/01 04:08:50;;;;;;;70.80;55.83;;;8.20;99.90;;;;;;5106307;28;20178;-67
2021/05/01 04:11:15;;;;;;;80.77;59.80;;;8.20;99.90;;;;;;5094959;28;20162;-67
2021/05/01 04:13:47;;;;;;;74.00;57.43;;;8.20;99.90;;;;;;5093724;28;20246;-67
2021/05/01 04:16:15;;;;;;;74.50;57.27;;;8.20;99.90;;;;;;5093620;28;20612;-66
2021/05/01 04:18:40;;;;;;;79.60;60.73;;;8.20;99.90;;;;;;5093492;28;20751;-67
2021/05/01 04:21:06;;;;;;;88.53;64.93;;;8.20;99.90;;;;;;5094108;28;20478;-67
2021/05/01 04:23:32;;;;;;;77.60;60.40;;;8.30;99.90;;;;;;5113819;28;20209;-67
2021/05/01 04:25:58;;;;;;;100.30;64.30;;;8.30;99.90;;;;;;5106308;28;20406;-67
2021/05/01 04:28:24;;;;;;;87.77;63.63;;;8.30;99.90;;;;;;5093528;28;20392;-67
2021/05/01 04:30:49;;;;;;;81.43;60.57;;;8.30;99.90;;;;;;5093270;28;20159;-67
2021/05/01 04:33:15;;;;;;;83.83;62.40;;;8.30;99.90;;;;;;5093325;28;20163;-67
2021/05/01 04:35:41;;;;;;;80.53;58.37;;;8.30;99.90;;;;;;5093271;28;20155;-67
2021/05/01 04:38:07;;;;;;;74.43;58.43;;;8.30;99.90;;;;;;5092965;28;20427;-67
2021/05/01 04:40:32;;;;;;;78.37;57.77;;;8.30;99.90;;;;;;5094530;28;20159;-67
2021/05/01 04:43:02;;;;;;;77.20;59.93;;;8.40;99.90;;;;;;5093825;28;20240;-67
2021/05/01 04:45:28;;;;;;;76.97;57.67;;;8.40;99.90;;;;;;5093195;28;20150;-67
2021/05/01 04:47:54;;;;;;;74.00;57.70;;;8.40;99.90;;;;;;5093027;28;20386;-67
2021/05/01 04:50:20;;;;;;;71.37;54.90;;;8.40;99.90;;;;;;5093067;28;20398;-67
2021/05/01 04:52:45;;;;;;;68.47;52.57;;;8.40;99.90;;;;;;5110013;28;20538;-67
2021/05/01 04:55:14;;;;;;;80.57;54.20;;;8.40;99.90;;;;;;5114994;28;20173;-67
2021/05/01 04:57:41;;;;;;;65.80;50.73;;;8.40;99.90;;;;;;5112368;28;20193;-67
2021/05/01 05:00:08;;;;;;;73.13;52.47;;;8.30;99.90;;;;;;5102923;28;20486;-67
2021/05/01 05:02:34;;;;;;;72.57;51.87;;;8.30;99.90;;;;;;5092875;28;20461;-67
2021/05/01 05:04:59;;;;;;;68.07;51.10;;;8.30;99.90;;;;;;5093017;28;20396;-67
2021/05/01 05:07:25;;;;;;;70.30;52.47;;;8.40;99.90;;;;;;5093203;28;20167;-67
2021/05/01 05:09:50;;;;;;;64.77;51.60;;;8.40;99.90;;;;;;5094066;28;20204;-67
2021/05/01 05:12:16;;;;;;;73.17;53.93;;;8.40;99.90;;;;;;5092975;28;20155;-67
2021/05/01 05:14:41;;;;;;;71.73;54.77;;;8.40;99.90;;;;;;5092970;28;20677;-67
2021/05/01 05:17:07;;;;;;;80.40;55.67;;;8.50;99.90;;;;;;5093586;28;20558;-67
2021/05/01 05:19:32;;;;;;;88.97;58.57;;;8.50;99.90;;;;;;5093410;28;20531;-67
2021/05/01 05:21:58;;;;;;;77.47;55.80;;;8.50;99.90;;;;;;5093176;28;20194;-67
2021/05/01 05:24:23;;;;;;;82.47;55.47;;;8.40;99.90;;;;;;5094326;28;20687;-67
2021/05/01 05:26:49;;;;;;;81.10;57.97;;;8.50;99.90;;;;;;5092907;28;20147;-67
2021/05/01 05:29:14;;;;;;;81.13;58.63;;;8.50;99.90;;;;;;5092881;28;20152;-67
2021/05/01 05:31:40;;;;;;;75.33;56.00;;;8.50;99.90;;;;;;5093138;28;20233;-67
2021/05/01 05:34:06;;;;;;;75.03;58.23;;;8.50;99.90;;;;;;5102764;28;20170;-67
2021/05/01 05:36:31;;;;;;;71.70;55.73;;;8.50;99.90;;;;;;5108444;28;20174;-67
2021/05/01 05:38:57;;;;;;;74.33;55.23;;;8.60;99.90;;;;;;5094143;28;20170;-67
2021/05/01 05:41:24;;;;;;;74.87;54.70;;;8.60;99.90;;;;;;5093132;28;20523;-67
2021/05/01 05:43:50;;;;;;;78.73;55.60;;;8.70;99.90;;;;;;5092733;28;20278;-67
2021/05/01 05:46:17;;;;;;;71.70;54.57;;;8.70;99.90;;;;;;5092665;28;20386;-67
2021/05/01 05:48:42;;;;;;;65.93;49.90;;;8.70;99.90;;;;;;5093596;28;20388;-67
2021/05/01 05:51:08;;;;;;;68.87;52.23;;;8.70;99.90;;;;;;5097571;28;20409;-67
2021/05/01 05:53:35;;;;;;;71.03;50.13;;;8.80;99.90;;;;;;5097503;28;20167;-67
2021/05/01 05:56:00;;;;;;;66.63;53.20;;;8.80;99.90;;;;;;5096459;28;20448;-67
2021/05/01 05:58:26;;;;;;;62.97;48.80;;;8.80;99.90;;;;;;5096281;28;20392;-67
2021/05/01 06:00:52;;;;;;;58.33;45.73;;;8.80;99.90;;;;;;5096334;28;20159;-67
2021/05/01 06:03:18;;;;;;;63.33;47.63;;;8.80;99.90;;;;;;5096128;28;20202;-67
2021/05/01 06:05:50;;;;;;;61.60;47.60;;;8.80;99.90;;;;;;5096782;28;20152;-67
2021/05/01 06:08:17;;;;;;;53.43;44.63;;;8.90;99.90;;;;;;5104406;28;20428;-67
2021/05/01 06:10:44;;;;;;;55.13;43.57;;;8.90;99.90;;;;;;5096133;28;20393;-67
2021/05/01 06:13:12;;;;;;;56.10;42.70;;;9.00;99.90;;;;;;5096066;28;20476;-67
2021/05/01 06:15:39;;;;;;;44.17;33.63;;;9.10;99.90;;;;;;5096032;28;20424;-67
2021/05/01 06:18:06;;;;;;;50.20;38.40;;;9.10;99.90;;;;;;5096005;28;20508;-66
2021/05/01 06:20:32;;;;;;;60.23;41.00;;;9.20;99.90;;;;;;5096712;28;20390;-67
2021/05/01 06:23:01;;;;;;;47.37;37.40;;;9.20;99.90;;;;;;5096844;28;20448;-67
2021/05/01 06:25:27;;;;;;;50.60;36.03;;;9.30;99.90;;;;;;5096404;28;20401;-67
2021/05/01 06:27:53;;;;;;;50.13;37.93;;;9.30;99.90;;;;;;5095781;28;20424;-67
2021/05/01 06:30:21;;;;;;;45.37;34.60;;;9.30;99.90;;;;;;5095739;28;20390;-67
2021/05/01 06:32:47;;;;;;;40.20;32.50;;;9.30;99.90;;;;;;5095797;28;20394;-67
2021/05/01 06:35:13;;;;;;;42.83;34.93;;;9.30;99.90;;;;;;5096533;28;20839;-67
2021/05/01 06:37:40;;;;;;;36.67;31.63;;;9.30;99.90;;;;;;5112392;28;20492;-67
2021/05/01 06:40:09;;;;;;;32.80;28.70;;;9.40;99.90;;;;;;5115930;28;20395;-67
2021/05/01 06:42:39;;;;;;;36.53;31.03;;;9.50;99.90;;;;;;5101633;28;20456;-67
2021/05/01 06:47:56;;;;;;;37.60;28.53;;;9.50;99.90;;;;;;5111459;27;20502;-66
2021/05/01 06:50:24;;;;;;;30.20;26.93;;;9.40;99.90;;;;;;5111831;28;20417;-66
2021/05/01 06:52:52;;;;;;;34.13;28.13;;;9.40;99.90;;;;;;5111186;28;20401;-66
2021/05/01 06:55:20;;;;;;;36.13;27.47;;;9.50;99.90;;;;;;5110759;28;20396;-66
2021/05/01 06:57:49;;;;;;;35.53;28.77;;;9.80;99.90;;;;;;5110761;28;20885;-66
2021/05/01 07:00:16;;;;;;;34.70;26.40;;;9.90;99.90;;;;;;5110021;28;20438;-66
2021/05/01 07:02:45;;;;;;;31.43;27.20;;;9.90;99.90;;;;;;5110684;28;20428;-66
2021/05/01 07:05:13;;;;;;;35.50;28.00;;;9.90;99.90;;;;;;5112099;28;20524;-66
2021/05/01 07:07:39;;;;;;;29.17;25.83;;;9.90;99.90;;;;;;5092886;28;20501;-66
2021/05/01 07:10:07;;;;;;;34.73;28.10;;;9.90;99.90;;;;;;5090230;28;20797;-66
2021/05/01 07:12:33;;;;;;;37.00;28.07;;;10.00;99.90;;;;;;5090201;28;20638;-66
2021/05/01 07:15:03;;;;;;;31.30;25.73;;;10.00;99.90;;;;;;5089983;28;20398;-66
2021/05/01 07:17:30;;;;;;;40.33;27.83;;;10.20;99.90;;;;;;5110543;28;20401;-66
2021/05/01 07:19:59;;;;;;;33.53;26.17;;;10.30;99.90;;;;;;5111504;28;20854;-66
2021/05/01 07:22:25;;;;;;;29.90;25.60;;;10.50;99.90;;;;;;5110258;28;20431;-66
2021/05/01 07:24:50;;;;;;;31.83;25.57;;;10.60;99.90;;;;;;5110284;28;20396;-66
2021/05/01 07:27:16;;;;;;;27.53;23.20;;;10.80;99.90;;;;;;5110131;28;20207;-66
2021/05/01 07:29:45;;;;;;;28.80;22.57;;;10.90;99.90;;;;;;5110584;28;20681;-66
2021/05/01 07:32:15;;;;;;;27.03;22.40;;;11.10;99.90;;;;;;5110197;28;20410;-66
2021/05/01 07:34:49;;;;;;;26.67;22.63;;;11.30;99.90;;;;;;5111067;28;20404;-66
2021/05/01 07:37:18;;;;;;;26.20;22.60;;;11.50;99.90;;;;;;5094460;28;20790;-66
2021/05/01 07:39:48;;;;;;;28.10;22.30;;;11.80;99.90;;;;;;5089813;28;20402;-66
2021/05/01 07:42:16;;;;;;;25.93;21.77;;;12.20;99.90;;;;;;5089937;28;20401;-66
2021/05/01 07:44:41;;;;;;;24.87;19.50;;;13.10;99.90;;;;;;5089978;28;20393;-66
2021/05/01 07:47:10;;;;;;;25.13;20.40;;;13.50;99.90;;;;;;5089765;28;20575;-66
2021/05/01 07:49:37;;;;;;;25.33;19.50;;;13.70;99.00;;;;;;5095705;28;20181;-66
2021/05/01 07:52:03;;;;;;;25.57;20.57;;;14.00;96.50;;;;;;5109806;28;20393;-66
2021/05/01 07:54:32;;;;;;;30.60;21.07;;;14.30;96.30;;;;;;5109742;28;20450;-66
2021/05/01 07:56:58;;;;;;;21.93;18.83;;;14.70;94.40;;;;;;5108440;28;20424;-67
2021/05/01 07:59:24;;;;;;;21.60;16.73;;;15.30;92.30;;;;;;5095970;28;20440;-66
2021/05/01 08:01:50;;;;;;;18.93;16.37;;;16.00;85.30;;;;;;5096121;28;20177;-66
2021/05/01 08:04:16;;;;;;;22.10;19.13;;;16.10;78.00;;;;;;5096524;28;20399;-66
2021/05/01 08:06:41;;;;;;;27.40;19.00;;;16.10;76.20;;;;;;5088036;28;20553;-66
2021/05/01 08:09:07;;;;;;;19.63;17.60;;;16.50;74.40;;;;;;5075608;28;20173;-66
2021/05/01 08:11:33;;;;;;;22.73;14.27;;;17.00;71.30;;;;;;5075896;28;20566;-66
2021/05/01 08:13:59;;;;;;;17.10;15.30;;;17.30;67.00;;;;;;5075641;28;20197;-66
2021/05/01 08:16:25;;;;;;;18.67;16.70;;;17.20;64.90;;;;;;5075820;28;20260;-66
2021/05/01 08:18:51;;;;;;;20.23;15.20;;;17.30;64.90;;;;;;5076145;28;20430;-66
2021/05/01 08:21:17;;;;;;;21.93;17.13;;;17.90;62.50;;;;;;5075350;28;20583;-66
2021/05/01 08:23:43;;;;;;;23.13;16.00;;;18.50;57.10;;;;;;5075939;28;20912;-66
2021/05/01 08:26:09;;;;;;;25.23;17.03;;;19.10;55.50;;;;;;5075269;28;20448;-66
2021/05/01 08:28:34;;;;;;;19.37;15.43;;;19.80;51.90;;;;;;5075266;28;20212;-66
2021/05/01 08:31:01;;;;;;;18.87;14.93;;;20.40;50.50;;;;;;5075775;28;20320;-66
2021/05/01 08:33:26;;;;;;;19.13;15.50;;;20.20;49.00;;;;;;5075629;28;20275;-66
2021/05/01 08:35:52;;;;;;;19.30;15.50;;;20.00;50.20;;;;;;5080508;28;20524;-67
2021/05/01 08:38:20;;;;;;;18.73;15.30;;;19.40;51.10;;;;;;5095195;28;20162;-67
2021/05/01 08:40:46;;;;;;;16.77;14.70;;;18.80;52.60;;;;;;5088026;28;20551;-66
2021/05/01 08:43:12;;;;;;;20.10;14.50;;;18.10;54.10;;;;;;5075034;28;20731;-66
2021/05/01 08:45:38;;;;;;;16.53;13.83;;;17.60;54.90;;;;;;5075312;28;20527;-67
2021/05/01 08:48:04;;;;;;;18.77;14.50;;;17.60;54.30;;;;;;5075294;28;20154;-66
2021/05/01 08:53:07;;;;;;;14.77;13.27;;;18.20;53.30;;;;;;5110941;27;20582;-67
2021/05/01 08:55:35;;;;;;;13.40;11.90;;;19.70;48.50;;;;;;5110863;28;20404;-67
2021/05/01 08:58:03;;;;;;;13.20;11.80;;;20.40;47.10;;;;;;5109938;28;20780;-67
2021/05/01 09:00:29;;;;;;;13.23;11.60;;;20.90;46.10;;;;;;5111471;28;20819;-67
2021/05/01 09:02:55;;;;;;;16.53;11.40;;;21.10;45.10;;;;;;5110903;28;20387;-67
2021/05/01 09:05:24;;;;;;;16.97;13.07;;;20.80;45.00;;;;;;5110626;28;20395;-67
2021/05/01 09:07:50;;;;;;;15.00;11.80;;;20.20;45.20;;;;;;5092919;28;20512;-67
2021/05/01 09:10:16;;;;;;;12.30;11.10;;;20.20;46.40;;;;;;5090238;28;20413;-67
2021/05/01 09:12:47;;;;;;;13.70;11.77;;;20.50;46.30;;;;;;5090230;28;20482;-67
2021/05/01 09:15:29;;;;;;;14.37;11.60;;;20.80;45.40;;;;;;5101836;28;20178;-68
2021/05/01 09:18:00;;;;;;;14.60;10.17;;;21.00;44.40;;;;;;5110386;28;20907;-67
2021/05/01 09:20:27;;;;;;;12.40;10.03;;;20.80;43.80;;;;;;5110431;28;20423;-67
2021/05/01 09:22:57;;;;;;;9.53;8.63;;;20.40;43.90;;;;;;5110316;28;20389;-67
2021/05/01 09:25:24;;;;;;;15.67;9.70;;;19.70;44.00;;;;;;5110301;28;20388;-67
2021/05/01 09:30:37;;;;;;;9.27;8.33;;;19.40;45.40;;;;;;5111669;27;20502;-68
2021/05/01 09:36:00;;;;;;;10.80;9.27;;;19.10;44.50;;;;;;5110950;27;20563;-67
2021/05/01 09:38:39;;;;;;;8.90;8.13;;;18.90;45.90;;;;;;5110708;28;20419;-67
2021/05/01 09:41:09;;;;;;;12.17;8.30;;;19.00;44.30;;;;;;5111036;28;20471;-67
2021/05/01 09:43:34;;;;;;;11.60;10.30;;;19.10;42.60;;;;;;5111344;28;20396;-67
2021/05/01 09:46:13;;;;;;;14.03;7.63;;;19.00;43.20;;;;;;5109289;28;20400;-67
2021/05/01 09:48:39;;;;;;;9.63;8.50;;;19.00;45.00;;;;;;5104438;28;20714;-67
2021/05/01 09:51:05;;;;;;;9.57;8.57;;;19.10;45.10;;;;;;5090303;28;20377;-67
2021/05/01 09:53:31;;;;;;;9.10;8.20;;;19.10;45.30;;;;;;5090213;28;20609;-67
2021/05/01 09:55:58;;;;;;;10.07;9.03;;;19.00;43.10;;;;;;5090229;28;20396;-67
2021/05/01 09:58:26;;;;;;;10.40;9.30;;;18.80;43.40;;;;;;5090739;28;20722;-67
2021/05/01 10:01:11;;;;;;;10.93;9.30;;;18.60;44.00;;;;;;5090277;28;20401;-67
2021/05/01 10:03:37;;;;;;;9.73;8.83;;;18.40;44.10;;;;;;5107515;28;20452;-67
2021/05/01 10:06:05;;;;;;;10.50;8.67;;;18.20;43.60;;;;;;5100825;28;20451;-67
2021/05/01 10:08:32;;;;;;;9.90;8.97;;;18.10;44.20;;;;;;5088678;28;20179;-67
2021/05/01 10:11:08;;;;;;;10.50;9.50;;;18.00;45.40;;;;;;5089894;28;20395;-67
2021/05/01 10:13:48;;;;;;;11.10;9.90;;;17.90;45.00;;;;;;5090679;28;20456;-67
2021/05/01 10:16:14;;;;;;;10.63;9.50;;;17.90;44.20;;;;;;5089952;28;20392;-67
2021/05/01 10:19:05;;;;;;;11.80;10.60;;;17.60;45.50;;;;;;5089835;28;20389;-67
2021/05/01 10:21:32;;;;;;;11.70;10.60;;;17.40;46.50;;;;;;5089604;28;20386;-66
2021/05/01 10:23:57;;;;;;;10.63;9.63;;;17.30;46.90;;;;;;5089012;28;20435;-67
2021/05/01 10:26:23;;;;;;;9.07;8.20;;;17.10;46.80;;;;;;5090113;28;20491;-67
2021/05/01 10:28:51;;;;;;;8.87;8.03;;;17.00;45.00;;;;;;5090581;28;20633;-67
2021/05/01 10:31:20;;;;;;;8.47;7.67;;;16.90;44.10;;;;;;5090140;28;20456;-66
2021/05/01 10:33:48;;;;;;;8.23;7.43;;;16.80;44.60;;;;;;5109587;28;20455;-67
2021/05/01 10:39:06;;;;;;;7.37;6.63;;;16.60;44.40;;;;;;5110622;27;20507;-66
2021/05/01 10:41:33;;;;;;;9.93;8.10;;;16.20;44.00;;;;;;5071028;28;20406;-67
2021/05/01 10:44:01;;;;;;;9.87;8.80;;;16.10;44.20;;;;;;5070643;28;20436;-66
2021/05/01 10:46:29;;;;;;;11.93;10.73;;;15.80;44.60;;;;;;5070200;28;20414;-66
2021/05/01 10:49:06;;;;;;;15.13;13.63;;;15.70;45.00;;;;;;5070254;28;20487;-66
2021/05/01 10:54:17;;;;;;;9.77;8.77;;;15.60;47.40;;;;;;5131468;27;20504;-67
2021/05/01 10:59:26;;;;;;;11.17;10.17;;;15.70;46.70;;;;;;5131377;27;20889;-67
2021/05/01 11:01:53;;;;;;;11.33;10.03;;;15.80;47.30;;;;;;5128356;27;20476;-67
2021/05/01 11:09:42;;;;;;;12.60;10.30;;;15.70;47.40;;;;;;5111031;27;20570;-67
2021/05/01 11:12:11;;;;;;;20.27;11.90;;;15.80;46.70;;;;;;5111791;28;20804;-67
2021/05/01 11:14:40;;;;;;;12.70;11.40;;;15.70;47.20;;;;;;5096058;28;20401;-67
2021/05/01 11:22:50;;;;;;;12.13;10.77;;;15.40;47.70;;;;;;5027061;27;20519;-67
2021/05/01 11:25:18;;;;;;;10.43;9.53;;;15.20;48.10;;;;;;5028072;28;20385;-67
2021/05/01 11:27:46;;;;;;;11.13;10.10;;;15.10;48.00;;;;;;5027185;28;20388;-67
2021/05/01 11:30:15;;;;;;;18.40;12.37;;;15.10;47.40;;;;;;5024639;28;20432;-67
2021/05/01 11:32:40;;;;;;;13.60;11.40;;;15.00;47.40;;;;;;5007232;28;20438;-67
2021/05/01 11:35:08;;;;;;;12.30;11.10;;;15.00;47.80;;;;;;5007078;28;20882;-67
2021/05/01 11:37:42;;;;;;;11.50;10.40;;;15.00;48.60;;;;;;5007144;28;20404;-67
2021/05/01 11:40:10;;;;;;;12.30;11.10;;;15.00;47.80;;;;;;5015644;28;20808;-67
2021/05/01 11:42:39;;;;;;;12.60;9.70;;;15.00;47.80;;;;;;5026812;28;20451;-67
2021/05/01 11:47:50;;;;;;;9.57;6.90;;;14.80;47.60;;;;;;5124144;27;20497;-67
2021/05/01 11:50:18;;;;;;;8.00;7.20;;;14.60;44.70;;;;;;5109746;28;20395;-67
2021/05/01 11:55:32;;;;;;;8.20;7.33;;;14.30;44.20;;;;;;5111703;27;20502;-67
2021/05/01 11:58:00;;;;;;;9.90;8.47;;;14.20;44.90;;;;;;5110771;28;20388;-67
2021/05/01 12:03:07;;;;;;;8.70;8.00;;;14.20;46.60;;;;;;5110193;27;21034;-67
2021/05/01 12:05:35;;;;;;;9.90;7.90;;;14.10;46.00;;;;;;5083178;28;20410;-67
2021/05/01 12:08:20;;;;;;;10.60;9.13;;;14.10;47.00;;;;;;5071103;28;20382;-67
2021/05/01 12:10:49;;;;;;;9.97;8.97;;;14.20;47.10;;;;;;5070726;28;20410;-67
2021/05/01 12:15:58;;;;;;;8.50;7.80;;;14.30;45.80;;;;;;5090580;28;20565;-65
2021/05/01 12:21:28;;;;;;;8.70;7.70;;;14.40;46.10;;;;;;5106826;27;20502;-67
2021/05/01 12:23:57;;;;;;;9.87;8.83;;;14.60;47.00;;;;;;5091954;28;20382;-67
2021/05/01 12:26:39;;;;;;;9.00;8.20;;;14.80;46.60;;;;;;5090803;28;20388;-67
2021/05/01 12:37:27;;;;;;;8.30;7.60;;;14.90;46.40;;;;;;5112260;27;20517;-67
2021/05/01 12:39:59;;;;;;;7.80;6.93;;;15.40;45.40;;;;;;5094854;28;20400;-67
2021/05/01 12:42:28;;;;;;;6.67;6.07;;;15.50;44.40;;;;;;5072541;28;20385;-67
2021/05/01 12:44:54;;;;;;;7.70;6.77;;;15.50;44.40;;;;;;5090545;28;20882;-67
2021/05/01 12:52:49;;;;;;;6.53;5.80;;;15.60;42.90;;;;;;5112139;27;20566;-66
2021/05/01 12:55:16;;;;;;;7.10;6.40;;;15.60;42.60;;;;;;5108065;28;20885;-66
2021/05/01 12:57:44;;;;;;;6.07;5.57;;;15.60;43.10;;;;;;5090458;28;20395;-66
2021/05/01 13:00:29;;;;;;;6.27;5.70;;;15.60;43.30;;;;;;5090621;28;20425;-66
2021/05/01 13:03:16;;;;;;;6.70;6.10;;;15.60;43.60;;;;;;5105707;28;20507;-66
2021/05/01 13:05:44;;;;;;;7.80;7.00;;;15.70;44.40;;;;;;5111828;28;20396;-66
2021/05/01 13:08:21;;;;;;;7.77;7.00;;;15.70;43.40;;;;;;5091225;28;20410;-66
2021/05/01 13:10:47;;;;;;;6.30;5.80;;;15.70;43.90;;;;;;5090144;28;20462;-66
2021/05/01 13:13:12;;;;;;;7.00;6.40;;;15.70;43.70;;;;;;5100625;28;20885;-66
2021/05/01 13:16:01;;;;;;;7.87;6.83;;;15.70;43.90;;;;;;5110423;28;20476;-66
2021/05/01 13:18:27;;;;;;;6.57;5.90;;;15.70;44.50;;;;;;5109611;28;20199;-66
2021/05/01 13:21:10;;;;;;;7.97;7.00;;;15.80;44.00;;;;;;5111142;28;20480;-66
2021/05/01 13:23:39;;;;;;;7.00;6.30;;;15.80;43.20;;;;;;5110401;28;20396;-66
2021/05/01 13:26:12;;;;;;;9.43;6.63;;;15.70;43.90;;;;;;5109112;28;20389;-66
2021/05/01 13:28:38;;;;;;;6.60;6.07;;;15.70;43.60;;;;;;5110268;28;20396;-66
2021/05/01 13:31:08;;;;;;;8.57;7.67;;;15.70;42.80;;;;;;5109475;28;20455;-66
2021/05/01 13:33:41;;;;;;;9.50;6.63;;;15.70;42.80;;;;;;5110324;28;20181;-66
2021/05/01 13:36:07;;;;;;;9.93;7.30;;;15.80;43.40;;;;;;5109378;28;20381;-66